sensor_id;sensor_type;location;lat;lon;timestamp;temperature;humidity
1524;DHT22;755;53.658;10.118;2024-02-23T00:09:50;9.50;99.90
1524;DHT22;755;53.658;10.118;2024-02-23T00:19:52;9.50;1.00
1524;DHT22;755;53.658;10.118;2024-02-23T00:29:56;9.30;1.00
1524;DHT22;755;53.658;10.118;2024-02-23T00:39:57;9.20;98.50
1524;DHT22;755;53.658;10.118;2024-02-23T00:50:01;9.20;1.00
1524;DHT22;755;53.658;10.118;2024-02-23T01:00:03;9.10;99.90
1524;DHT22;755;53.658;10.118;2024-02-23T01:10:07;7.90;99.90
1524;DHT22;755;53.658;10.118;2024-02-23T01:20:10;7.30;99.90
1524;DHT22;755;53.658;10.118;2024-02-23T01:30:14;7.20;99.90
1524;DHT22;755;53.658;10.118;2024-02-23T01:40:16;7.10;99.90
1524;DHT22;755;53.658;10.118;2024-02-23T01:50:19;7.00;99.90
1524;DHT22;755;53.658;10.118;2024-02-23T02:00:21;7.10;99.90
1524;DHT22;755;53.658;10.118;2024-02-23T02:10:25;7.00;99.90
1524;DHT22;755;53.658;10.118;2024-02-23T02:20:28;7.00;99.90
1524;DHT22;755;53.658;10.118;2024-02-23T02:30:32;6.80;99.90
1524;DHT22;755;53.658;10.118;2024-02-23T02:40:34;6.80;99.90
1524;DHT22;755;53.658;10.118;2024-02-23T02:50:37;6.50;99.90
1524;DHT22;755;53.658;10.118;2024-02-23T03:00:40;6.40;99.90
1524;DHT22;755;53.658;10.118;2024-02-23T03:10:43;6.20;99.90
1524;DHT22;755;53.658;10.118;2024-02-23T03:20:45;6.20;99.90
1524;DHT22;755;53.658;10.118;2024-02-23T03:30:48;6.20;99.90
1524;DHT22;755;53.658;10.118;2024-02-23T03:40:51;6.10;99.90
1524;DHT22;755;53.658;10.118;2024-02-23T03:50:54;6.10;99.90
1524;DHT22;755;53.658;10.118;2024-02-23T04:00:56;6.00;26.70
1524;DHT22;755;53.658;10.118;2024-02-23T04:10:59;5.80;67.50
1524;DHT22;755;53.658;10.118;2024-02-23T04:21:01;5.60;1.00
1524;DHT22;755;53.658;10.118;2024-02-23T04:31:05;5.50;1.00
1524;DHT22;755;53.658;10.118;2024-02-23T04:41:06;5.60;1.00
1524;DHT22;755;53.658;10.118;2024-02-23T04:51:10;5.80;1.00
1524;DHT22;755;53.658;10.118;2024-02-23T05:01:12;5.80;1.00
1524;DHT22;755;53.658;10.118;2024-02-23T05:11:16;5.70;1.00
1524;DHT22;755;53.658;10.118;2024-02-23T05:21:17;5.70;1.00
1524;DHT22;755;53.658;10.118;2024-02-23T05:31:44;5.70;1.00
1524;DHT22;755;53.658;10.118;2024-02-23T05:41:46;5.70;1.00
1524;DHT22;755;53.658;10.118;2024-02-23T05:51:49;5.60;1.00
1524;DHT22;755;53.658;10.118;2024-02-23T06:01:51;5.60;1.00
1524;DHT22;755;53.658;10.118;2024-02-23T06:11:59;5.70;1.00
1524;DHT22;755;53.658;10.118;2024-02-23T06:22:01;5.80;99.90
1524;DHT22;755;53.658;10.118;2024-02-23T06:32:05;5.70;1.50
1524;DHT22;755;53.658;10.118;2024-02-23T06:42:08;5.70;1.00
1524;DHT22;755;53.658;10.118;2024-02-23T06:52:12;5.70;99.90
1524;DHT22;755;53.658;10.118;2024-02-23T07:02:14;5.60;84.80
1524;DHT22;755;53.658;10.118;2024-02-23T07:12:17;5.70;99.90
1524;DHT22;755;53.658;10.118;2024-02-23T07:22:19;5.80;41.00
1524;DHT22;755;53.658;10.118;2024-02-23T07:32:23;5.80;99.90
1524;DHT22;755;53.658;10.118;2024-02-23T07:42:25;5.70;99.90
1524;DHT22;755;53.658;10.118;2024-02-23T07:52:29;5.90;99.90
1524;DHT22;755;53.658;10.118;2024-02-23T08:02:31;5.90;1.00
1524;DHT22;755;53.658;10.118;2024-02-23T08:12:34;5.90;99.90
1524;DHT22;755;53.658;10.118;2024-02-23T08:22:36;5.90;99.90
1524;DHT22;755;53.658;10.118;2024-02-23T08:32:40;6.10;99.90
1524;DHT22;755;53.658;10.118;2024-02-23T08:42:42;7.00;1.00
1524;DHT22;755;53.658;10.118;2024-02-23T08:52:45;6.70;99.90
1524;DHT22;755;53.658;10.118;2024-02-23T09:02:47;6.80;47.90
1524;DHT22;755;53.658;10.118;2024-02-23T09:12:52;6.90;1.00
1524;DHT22;755;53.658;10.118;2024-02-23T09:22:53;7.10;5.00
1524;DHT22;755;53.658;10.118;2024-02-23T09:32:57;7.10;99.90
1524;DHT22;755;53.658;10.118;2024-02-23T09:42:59;7.20;99.90
1524;DHT22;755;53.658;10.118;2024-02-23T09:53:04;7.00;99.90
1524;DHT22;755;53.658;10.118;2024-02-23T10:03:09;7.10;99.90
1524;DHT22;755;53.658;10.118;2024-02-23T10:13:12;7.30;99.90
1524;DHT22;755;53.658;10.118;2024-02-23T10:23:14;7.60;99.90
1524;DHT22;755;53.658;10.118;2024-02-23T10:33:19;7.70;1.00
1524;DHT22;755;53.658;10.118;2024-02-23T10:43:29;7.80;1.00
1524;DHT22;755;53.658;10.118;2024-02-23T10:53:34;8.00;99.90
1524;DHT22;755;53.658;10.118;2024-02-23T11:03:37;8.00;1.00
1524;DHT22;755;53.658;10.118;2024-02-23T11:13:43;8.10;1.00
1524;DHT22;755;53.658;10.118;2024-02-23T11:23:48;8.20;99.90
1524;DHT22;755;53.658;10.118;2024-02-23T11:33:52;8.30;99.90
1524;DHT22;755;53.658;10.118;2024-02-23T11:43:55;8.10;99.90
1524;DHT22;755;53.658;10.118;2024-02-23T11:54:00;8.00;1.00
1524;DHT22;755;53.658;10.118;2024-02-23T12:04:02;8.10;99.90
1524;DHT22;755;53.658;10.118;2024-02-23T12:14:05;8.30;99.90
1524;DHT22;755;53.658;10.118;2024-02-23T12:24:09;8.30;99.90
1524;DHT22;755;53.658;10.118;2024-02-23T12:34:13;8.20;1.00
1524;DHT22;755;53.658;10.118;2024-02-23T12:44:15;8.30;14.40
1524;DHT22;755;53.658;10.118;2024-02-23T12:54:18;8.20;10.80
1524;DHT22;755;53.658;10.118;2024-02-23T13:04:20;8.20;1.00
1524;DHT22;755;53.658;10.118;2024-02-23T13:14:24;8.20;1.00
1524;DHT22;755;53.658;10.118;2024-02-23T13:24:25;8.40;1.00
1524;DHT22;755;53.658;10.118;2024-02-23T13:34:32;8.30;1.00
1524;DHT22;755;53.658;10.118;2024-02-23T13:44:34;8.40;1.00
1524;DHT22;755;53.658;10.118;2024-02-23T13:54:37;8.40;1.00
1524;DHT22;755;53.658;10.118;2024-02-23T14:04:39;8.40;1.00
1524;DHT22;755;53.658;10.118;2024-02-23T14:14:43;8.40;1.00
1524;DHT22;755;53.658;10.118;2024-02-23T14:24:44;8.40;1.00
1524;DHT22;755;53.658;10.118;2024-02-23T14:34:49;8.60;1.00
1524;DHT22;755;53.658;10.118;2024-02-23T14:44:51;8.90;1.00
1524;DHT22;755;53.658;10.118;2024-02-23T14:54:54;8.80;1.00
1524;DHT22;755;53.658;10.118;2024-02-23T15:04:56;9.10;1.00
1524;DHT22;755;53.658;10.118;2024-02-23T15:14:59;9.00;1.00
1524;DHT22;755;53.658;10.118;2024-02-23T15:25:01;8.90;1.00
1524;DHT22;755;53.658;10.118;2024-02-23T15:35:06;8.80;1.00
1524;DHT22;755;53.658;10.118;2024-02-23T15:45:09;8.70;1.00
1524;DHT22;755;53.658;10.118;2024-02-23T15:55:12;8.70;1.00
1524;DHT22;755;53.658;10.118;2024-02-23T16:05:14;8.70;1.00
1524;DHT22;755;53.658;10.118;2024-02-23T16:15:18;8.60;1.00
1524;DHT22;755;53.658;10.118;2024-02-23T16:25:20;8.50;1.00
1524;DHT22;755;53.658;10.118;2024-02-23T16:35:23;8.50;1.00
1524;DHT22;755;53.658;10.118;2024-02-23T16:45:26;8.40;81.30
1524;DHT22;755;53.658;10.118;2024-02-23T16:55:29;8.30;99.90
1524;DHT22;755;53.658;10.118;2024-02-23T17:05:31;8.30;99.90
1524;DHT22;755;53.658;10.118;2024-02-23T17:15:34;8.20;99.90
1524;DHT22;755;53.658;10.118;2024-02-23T17:25:36;8.30;99.90
1524;DHT22;755;53.658;10.118;2024-02-23T17:35:39;8.00;89.40
1524;DHT22;755;53.658;10.118;2024-02-23T17:45:41;6.70;99.90
1524;DHT22;755;53.658;10.118;2024-02-23T17:55:45;6.40;99.90
1524;DHT22;755;53.658;10.118;2024-02-23T18:05:47;6.10;99.90
1524;DHT22;755;53.658;10.118;2024-02-23T18:15:50;5.70;99.90
1524;DHT22;755;53.658;10.118;2024-02-23T18:25:52;5.60;99.90
1524;DHT22;755;53.658;10.118;2024-02-23T18:35:55;5.40;99.90
1524;DHT22;755;53.658;10.118;2024-02-23T18:45:57;5.20;99.90
1524;DHT22;755;53.658;10.118;2024-02-23T18:56:00;5.10;99.90
1524;DHT22;755;53.658;10.118;2024-02-23T19:06:06;5.30;99.90
1524;DHT22;755;53.658;10.118;2024-02-23T19:16:13;5.50;99.90
1524;DHT22;755;53.658;10.118;2024-02-23T19:26:15;5.90;99.90
1524;DHT22;755;53.658;10.118;2024-02-23T19:36:18;5.90;99.90
1524;DHT22;755;53.658;10.118;2024-02-23T19:46:20;6.10;1.00
1524;DHT22;755;53.658;10.118;2024-02-23T19:56:24;6.00;84.00
1524;DHT22;755;53.658;10.118;2024-02-23T20:06:27;5.90;99.90
1524;DHT22;755;53.658;10.118;2024-02-23T20:16:31;5.80;99.90
1524;DHT22;755;53.658;10.118;2024-02-23T20:26:33;5.60;99.90
1524;DHT22;755;53.658;10.118;2024-02-23T20:36:38;5.10;99.90
1524;DHT22;755;53.658;10.118;2024-02-23T20:46:40;4.80;99.90
1524;DHT22;755;53.658;10.118;2024-02-23T20:56:44;4.50;99.90
1524;DHT22;755;53.658;10.118;2024-02-23T21:06:46;4.30;99.90
1524;DHT22;755;53.658;10.118;2024-02-23T21:16:49;4.00;99.90
1524;DHT22;755;53.658;10.118;2024-02-23T21:26:51;4.00;99.90
1524;DHT22;755;53.658;10.118;2024-02-23T21:36:55;4.00;99.90
1524;DHT22;755;53.658;10.118;2024-02-23T21:46:57;4.20;99.90
1524;DHT22;755;53.658;10.118;2024-02-23T21:57:01;4.00;99.90
1524;DHT22;755;53.658;10.118;2024-02-23T22:07:03;3.80;99.90
1524;DHT22;755;53.658;10.118;2024-02-23T22:17:09;3.80;99.90
1524;DHT22;755;53.658;10.118;2024-02-23T22:27:11;3.70;99.90
1524;DHT22;755;53.658;10.118;2024-02-23T22:37:17;3.50;99.90
1524;DHT22;755;53.658;10.118;2024-02-23T23:32:09;3.30;99.90
1524;DHT22;755;53.658;10.118;2024-02-23T23:42:37;3.30;99.90
1524;DHT22;755;53.658;10.118;2024-02-23T23:53:08;3.20;99.90
